Time;durP1;ratioP1;P1;durP2;ratioP2;P2;SDS_P1;SDS_P2;PMS_P1;PMS_P2;Temp;Humidity;BMP_temperature;BMP_pressure;BME280_temperature;BME280_humidity;BME280_pressure;Samples;Min_cycle;Max_cycle;Signal;HPM_P1;HPM_P2
2022/01/13 00:00:57;;;;;;;24.17;14.75;;;14.20;47.90;13.20;103619.00;;;;4949769;28;20092;-85
2022/01/13 00:03:45;;;;;;;27.58;16.23;;;14.20;47.30;13.20;103615.00;;;;4948931;28;20046;-85
2022/01/13 00:06:31;;;;;;;26.63;15.45;;;14.20;47.40;13.20;103620.00;;;;4946845;28;20035;-85
2022/01/13 00:09:17;;;;;;;25.42;14.85;;;14.20;47.30;13.20;103612.00;;;;4935071;28;20479;-85
2022/01/13 00:12:06;;;;;;;29.85;16.92;;;14.20;47.30;13.20;103610.00;;;;4933063;28;20146;-85
2022/01/13 00:15:09;;;;;;;26.00;15.00;;;14.10;47.30;13.20;103613.00;;;;4957595;28;20415;-85
2022/01/13 00:21:11;;;;;;;23.25;13.52;;;14.20;47.40;13.20;103623.00;;;;4947456;28;20105;-85
2022/01/13 00:23:55;;;;;;;25.35;13.88;;;14.20;47.40;13.20;103619.00;;;;4959024;28;20408;-86
2022/01/13 00:26:42;;;;;;;29.83;14.80;;;14.10;47.40;13.20;103620.00;;;;4946544;28;20512;-85
2022/01/13 00:29:31;;;;;;;29.23;14.95;;;14.10;47.30;13.20;103615.00;;;;4958310;28;20042;-85
2022/01/13 00:32:19;;;;;;;25.45;14.95;;;14.10;47.40;13.20;103618.00;;;;4947002;28;20045;-85
2022/01/13 00:35:07;;;;;;;26.23;15.40;;;14.10;47.40;13.20;103624.00;;;;4940654;28;20061;-85
2022/01/13 00:37:53;;;;;;;24.47;14.13;;;14.10;47.40;13.20;103617.00;;;;4946690;28;20039;-85
2022/01/13 00:40:42;;;;;;;25.90;14.30;;;14.10;47.50;13.20;103620.00;;;;4950788;28;20065;-85
2022/01/13 00:43:28;;;;;;;25.33;13.77;;;14.10;47.50;13.20;103618.00;;;;4946585;28;20088;-85
2022/01/13 00:46:21;;;;;;;25.63;14.20;;;14.10;47.50;13.20;103612.00;;;;4963686;28;20046;-85
2022/01/13 00:49:08;;;;;;;27.67;14.73;;;14.10;47.50;13.20;103606.00;;;;4940451;28;20038;-85
2022/01/13 00:51:54;;;;;;;24.93;14.40;;;14.10;47.50;13.20;103606.00;;;;4940302;28;20042;-85
2022/01/13 00:54:41;;;;;;;27.60;14.88;;;14.10;47.50;13.20;103607.00;;;;4938489;28;20038;-85
2022/01/13 00:57:28;;;;;;;25.02;14.40;;;14.10;47.50;13.20;103603.00;;;;4946099;28;20043;-85
2022/01/13 01:00:15;;;;;;;27.20;16.13;;;14.10;47.50;13.20;103615.00;;;;4964161;28;20049;-85
2022/01/13 01:03:01;;;;;;;24.40;14.02;;;14.10;47.50;13.20;103605.00;;;;4961214;28;20046;-85
2022/01/13 01:05:48;;;;;;;23.77;14.60;;;14.10;47.50;13.20;103602.00;;;;4952299;28;20061;-85
2022/01/13 01:08:34;;;;;;;24.45;14.10;;;14.10;47.50;13.20;103605.00;;;;4938000;28;20038;-85
2022/01/13 01:11:20;;;;;;;26.42;13.93;;;14.10;47.50;13.20;103606.00;;;;4937303;28;20046;-85
2022/01/13 01:14:07;;;;;;;24.65;14.02;;;14.10;47.50;13.20;103606.00;;;;4937671;28;20038;-85
2022/01/13 01:16:54;;;;;;;26.43;14.80;;;14.10;47.60;13.20;103611.00;;;;4949989;28;20038;-85
2022/01/13 01:19:43;;;;;;;25.00;15.00;;;14.10;47.60;13.20;103625.00;;;;4934338;28;20278;-85
2022/01/13 01:22:41;;;;;;;23.75;13.95;;;14.10;47.50;13.20;103611.00;;;;4936984;28;20137;-85
2022/01/13 01:28:20;;;;;;;25.75;14.32;;;14.10;47.60;13.20;103619.00;;;;4950474;28;20046;-85
2022/01/13 01:31:07;;;;;;;23.73;14.32;;;14.10;47.60;13.20;103620.00;;;;4952794;28;20074;-85
2022/01/13 01:36:58;;;;;;;24.00;13.13;;;14.10;47.60;13.20;103606.00;;;;4953529;28;20096;-85
2022/01/13 01:39:47;;;;;;;25.63;13.95;;;14.10;47.70;13.20;103605.00;;;;4948742;28;20046;-85
2022/01/13 01:42:33;;;;;;;23.58;13.40;;;14.10;47.70;13.20;103613.00;;;;4949129;28;20050;-85
2022/01/13 01:45:19;;;;;;;24.27;13.75;;;14.10;47.60;13.20;103608.00;;;;4949005;28;20050;-85
2022/01/13 01:48:06;;;;;;;24.98;13.32;;;14.10;47.60;13.20;103623.00;;;;4932696;28;20030;-85
2022/01/13 01:50:58;;;;;;;23.63;13.68;;;14.10;47.70;13.20;103629.00;;;;4950151;28;20066;-85
2022/01/13 01:53:47;;;;;;;25.83;14.55;;;14.10;47.60;13.20;103626.00;;;;4975019;28;20077;-85
2022/01/13 01:56:33;;;;;;;24.60;13.35;;;14.10;47.60;13.30;103622.00;;;;4956028;28;20042;-85
2022/01/13 01:59:23;;;;;;;25.15;14.57;;;14.10;47.70;13.30;103627.00;;;;4935167;28;20568;-85
2022/01/13 02:02:12;;;;;;;25.58;13.55;;;14.20;47.70;13.30;103622.00;;;;4937123;28;20042;-86
2022/01/13 02:04:58;;;;;;;21.63;12.85;;;14.20;47.70;13.20;103619.00;;;;4959104;28;20070;-86
2022/01/13 02:07:44;;;;;;;22.08;14.02;;;14.20;47.80;13.20;103622.00;;;;4948921;28;20065;-85
2022/01/13 02:10:31;;;;;;;22.35;12.60;;;14.20;47.80;13.30;103626.00;;;;4949221;28;20045;-85
2022/01/13 02:13:22;;;;;;;24.90;14.15;;;14.20;47.80;13.30;103623.00;;;;4947739;28;20042;-84
2022/01/13 02:16:25;;;;;;;24.25;12.57;;;14.20;47.70;13.20;103628.00;;;;4939950;28;20088;-84
2022/01/13 02:19:11;;;;;;;21.48;12.73;;;14.20;47.80;13.30;103627.00;;;;4937200;28;20034;-85
2022/01/13 02:21:59;;;;;;;22.08;13.02;;;14.20;47.70;13.20;103632.00;;;;4948930;28;20121;-85
2022/01/13 02:24:45;;;;;;;23.73;13.85;;;14.20;47.70;13.20;103618.00;;;;4940340;28;20503;-85
2022/01/13 02:27:31;;;;;;;25.40;13.57;;;14.20;47.70;13.20;103608.00;;;;4935156;28;20872;-85
2022/01/13 02:30:18;;;;;;;23.65;13.25;;;14.20;47.70;13.20;103611.00;;;;4937104;28;20100;-85
2022/01/13 02:33:04;;;;;;;23.77;12.70;;;14.20;47.80;13.20;103612.00;;;;4932588;28;20031;-85
2022/01/13 02:35:50;;;;;;;23.52;13.45;;;14.20;47.80;13.20;103615.00;;;;4949031;28;20053;-85
2022/01/13 02:38:36;;;;;;;23.88;12.63;;;14.20;47.80;13.20;103612.00;;;;4937727;28;20042;-85
2022/01/13 02:41:23;;;;;;;22.40;12.75;;;14.20;47.90;13.20;103607.00;;;;4946433;28;20034;-85
2022/01/13 02:44:14;;;;;;;21.40;11.93;;;14.20;47.80;13.30;103601.00;;;;4935242;28;20049;-85
2022/01/13 02:47:33;;;;;;;23.35;12.65;;;14.20;47.90;13.20;103607.00;;;;4943588;28;20576;-85
2022/01/13 02:50:19;;;;;;;19.77;12.35;;;14.20;47.90;13.20;103615.00;;;;4970545;28;20062;-85
2022/01/13 02:53:06;;;;;;;23.77;13.40;;;14.20;47.90;13.20;103605.00;;;;4931666;28;20049;-85
2022/01/13 02:56:04;;;;;;;21.65;12.27;;;14.20;47.90;13.20;103601.00;;;;4935264;28;20041;-85
2022/01/13 02:58:51;;;;;;;24.25;13.32;;;14.20;48.60;13.20;103610.00;;;;4924791;28;20049;-85
2022/01/13 03:01:38;;;;;;;23.00;13.25;;;14.20;47.90;13.20;103608.00;;;;4957780;28;20042;-85
2022/01/13 03:04:26;;;;;;;23.80;13.57;;;14.10;47.80;13.20;103613.00;;;;4947632;28;20042;-85
2022/01/13 03:07:12;;;;;;;24.10;13.90;;;14.20;47.90;13.20;103602.00;;;;4959935;28;20038;-85
2022/01/13 03:09:58;;;;;;;23.63;13.80;;;14.20;47.90;13.20;103598.00;;;;4928499;28;20844;-85
2022/01/13 03:12:46;;;;;;;24.90;13.40;;;14.20;48.00;13.20;103600.00;;;;4934406;28;20038;-85
2022/01/13 03:15:32;;;;;;;23.60;13.25;;;14.20;48.00;13.20;103600.00;;;;4929716;28;20046;-85
2022/01/13 03:18:18;;;;;;;21.63;12.77;;;14.20;48.00;13.20;103593.00;;;;4933929;28;20410;-85
2022/01/13 03:21:05;;;;;;;24.73;13.95;;;14.20;48.70;13.20;103590.00;;;;4933058;28;20062;-85
2022/01/13 03:23:52;;;;;;;23.42;13.45;;;14.20;48.00;13.20;103582.00;;;;4949349;28;20380;-85
2022/01/13 03:26:38;;;;;;;22.75;14.02;;;14.20;48.00;13.20;103583.00;;;;4964787;28;20463;-85
2022/01/13 03:29:26;;;;;;;24.48;13.63;;;14.20;48.00;13.20;103569.00;;;;4959790;28;20046;-86
2022/01/13 03:32:12;;;;;;;24.50;13.43;;;14.20;48.70;13.20;103585.00;;;;4926140;28;20502;-85
2022/01/13 03:34:59;;;;;;;22.67;13.25;;;14.20;48.00;13.20;103580.00;;;;4933994;28;20439;-85
2022/01/13 03:37:45;;;;;;;25.88;14.23;;;14.20;48.00;13.20;103576.00;;;;4928648;28;20113;-85
2022/01/13 03:40:33;;;;;;;23.67;13.40;;;14.20;48.00;13.20;103574.00;;;;4948191;28;20084;-85
2022/01/13 03:43:19;;;;;;;25.38;14.15;;;14.20;48.00;13.20;103573.00;;;;4950942;28;20475;-85
2022/01/13 03:46:06;;;;;;;23.25;13.20;;;14.20;48.00;13.20;103571.00;;;;4947561;28;20508;-85
2022/01/13 03:48:53;;;;;;;25.60;13.82;;;14.20;48.00;13.20;103571.00;;;;4949292;28;20072;-85
2022/01/13 03:51:55;;;;;;;26.27;14.13;;;14.20;48.00;13.20;103576.00;;;;4959602;28;20042;-85
2022/01/13 03:55:34;;;;;;;24.02;13.55;;;14.10;48.00;13.20;103570.00;;;;4987785;28;20069;-85
2022/01/13 03:59:03;;;;;;;23.98;12.75;;;14.10;48.00;13.10;103557.00;;;;4986574;28;20034;-85
2022/01/13 04:02:06;;;;;;;23.48;13.18;;;14.10;48.10;13.10;103561.00;;;;4970075;28;20042;-85
2022/01/13 04:04:52;;;;;;;23.88;13.10;;;14.10;48.10;13.10;103550.00;;;;4965759;28;20038;-85
2022/01/13 04:07:39;;;;;;;23.38;13.15;;;14.10;48.10;13.10;103548.00;;;;4959376;28;20045;-85
2022/01/13 04:10:53;;;;;;;24.08;13.05;;;14.10;48.10;13.10;103547.00;;;;4950002;28;20110;-85
2022/01/13 04:13:53;;;;;;;20.20;12.10;;;14.10;48.20;13.10;103535.00;;;;4992126;28;20463;-85
2022/01/13 04:16:39;;;;;;;25.20;13.18;;;14.10;48.20;13.10;103551.00;;;;4948619;28;20994;-85
2022/01/13 04:19:25;;;;;;;25.67;13.80;;;14.10;48.20;13.10;103566.00;;;;4962653;28;20053;-86
2022/01/13 04:22:12;;;;;;;25.63;14.50;;;14.10;48.20;13.10;103564.00;;;;4949981;28;20096;-85
2022/01/13 04:24:58;;;;;;;26.00;13.52;;;14.10;48.30;13.10;103560.00;;;;4959381;28;20050;-85
2022/01/13 04:27:48;;;;;;;22.63;13.00;;;14.10;48.30;13.20;103557.00;;;;4964245;28;20503;-85
2022/01/13 04:30:46;;;;;;;23.38;13.25;;;14.10;48.30;13.20;103552.00;;;;4962114;28;20193;-85
2022/01/13 04:33:35;;;;;;;24.35;13.90;;;14.10;48.30;13.20;103552.00;;;;4954048;28;20410;-85
2022/01/13 04:36:21;;;;;;;26.65;13.65;;;14.10;48.30;13.20;103555.00;;;;4950031;28;20474;-85
2022/01/13 04:39:08;;;;;;;26.33;14.88;;;14.20;48.30;13.20;103553.00;;;;4949164;28;20490;-85
2022/01/13 04:41:55;;;;;;;24.90;14.03;;;14.20;48.30;13.30;103558.00;;;;4952907;28;20123;-85
2022/01/13 04:44:41;;;;;;;25.33;13.30;;;14.20;48.30;13.30;103551.00;;;;4949981;28;20286;-85
2022/01/13 04:47:27;;;;;;;22.08;12.77;;;14.20;48.20;13.30;103549.00;;;;4937635;28;20117;-85
2022/01/13 04:50:17;;;;;;;24.73;13.20;;;14.30;48.20;13.30;103543.00;;;;4961107;28;20038;-85
2022/01/13 04:53:03;;;;;;;23.85;13.80;;;14.30;48.10;13.30;103554.00;;;;4958082;28;20034;-85
2022/01/13 04:55:51;;;;;;;23.83;13.95;;;14.30;48.10;13.30;103557.00;;;;4946679;28;20046;-85
2022/01/13 04:58:38;;;;;;;23.83;13.23;;;14.30;48.00;13.30;103545.00;;;;4963809;28;20073;-85
2022/01/13 05:01:24;;;;;;;21.85;12.50;;;14.30;48.00;13.40;103542.00;;;;4938464;28;20073;-85
2022/01/13 05:04:11;;;;;;;21.92;12.68;;;14.40;48.00;13.40;103536.00;;;;4936496;28;20053;-85
2022/01/13 05:06:57;;;;;;;26.48;13.25;;;14.40;48.00;13.40;103539.00;;;;4948808;28;20047;-85
2022/01/13 05:09:43;;;;;;;23.80;12.85;;;14.40;47.90;13.40;103547.00;;;;4938270;28;20042;-85
2022/01/13 05:12:39;;;;;;;25.20;13.02;;;14.40;47.90;13.40;103545.00;;;;4926684;28;20046;-85
2022/01/13 05:15:27;;;;;;;21.98;11.77;;;14.40;47.90;13.40;103540.00;;;;4952278;28;20042;-86
2022/01/13 05:21:06;;;;;;;22.45;12.65;;;14.40;47.90;13.40;103532.00;;;;4949916;28;20073;-85
2022/01/13 05:23:52;;;;;;;22.90;13.77;;;14.40;47.90;13.40;103516.00;;;;4936155;28;20096;-85
2022/01/13 05:26:39;;;;;;;25.00;14.00;;;14.40;47.80;13.40;103535.00;;;;4935956;28;20039;-85
2022/01/13 05:29:25;;;;;;;23.73;13.50;;;14.40;47.80;13.40;103544.00;;;;4934868;28;20049;-85
2022/01/13 05:32:11;;;;;;;23.55;13.35;;;14.40;47.90;13.30;103535.00;;;;4942255;28;20209;-85
2022/01/13 05:34:57;;;;;;;24.23;13.68;;;14.30;47.80;13.30;103535.00;;;;4935428;28;20092;-85
2022/01/13 05:37:45;;;;;;;20.67;12.73;;;14.30;47.80;13.30;103538.00;;;;4934316;28;20050;-85
2022/01/13 05:40:32;;;;;;;25.10;14.18;;;14.30;47.80;13.30;103529.00;;;;4943880;28;20039;-84
2022/01/13 05:43:20;;;;;;;23.13;12.90;;;14.30;47.80;13.30;103527.00;;;;4930048;28;20081;-85
2022/01/13 05:46:07;;;;;;;21.95;13.63;;;14.30;47.80;13.30;103521.00;;;;4946447;28;20062;-85
2022/01/13 05:48:56;;;;;;;21.02;12.25;;;14.30;47.80;13.30;103508.00;;;;4934044;28;20462;-85
2022/01/13 05:51:42;;;;;;;22.00;12.95;;;14.30;47.80;13.30;103516.00;;;;4955319;28;20100;-85
2022/01/13 05:54:29;;;;;;;23.38;12.98;;;14.30;47.80;13.30;103516.00;;;;4945867;28;20491;-85
2022/01/13 05:57:15;;;;;;;22.98;13.40;;;14.30;47.80;13.30;103523.00;;;;4944772;28;20495;-85
2022/01/13 06:00:02;;;;;;;23.58;13.48;;;14.20;47.80;13.30;103522.00;;;;4946289;28;20042;-85
2022/01/13 06:02:49;;;;;;;22.80;12.57;;;14.20;47.80;13.30;103520.00;;;;4945714;28;20034;-85
2022/01/13 06:05:36;;;;;;;22.35;12.15;;;14.30;47.90;13.30;103510.00;;;;4948208;28;20042;-86
2022/01/13 06:08:23;;;;;;;23.75;13.27;;;14.20;47.90;13.30;103511.00;;;;4950079;28;20046;-85
2022/01/13 06:11:09;;;;;;;23.58;13.32;;;14.20;47.80;13.30;103512.00;;;;4934027;28;20038;-85
2022/01/13 06:13:55;;;;;;;23.55;12.90;;;14.20;47.90;13.30;103499.00;;;;4933439;28;20514;-85
2022/01/13 06:16:42;;;;;;;20.20;11.63;;;14.20;47.80;13.30;103492.00;;;;4931733;28;20479;-86
2022/01/13 06:19:28;;;;;;;21.83;12.80;;;14.20;47.90;13.30;103490.00;;;;4947791;28;20050;-86
2022/01/13 06:22:14;;;;;;;20.08;11.98;;;14.20;47.80;13.20;103493.00;;;;4934368;28;23495;-85
2022/01/13 06:25:05;;;;;;;21.52;12.43;;;14.20;47.80;13.30;103497.00;;;;4932925;28;20038;-85
2022/01/13 06:27:52;;;;;;;20.98;12.52;;;14.20;47.90;13.20;103506.00;;;;4947341;28;20053;-85
2022/01/13 06:30:41;;;;;;;20.55;11.95;;;14.20;47.80;13.20;103495.00;;;;4945452;28;20050;-86
2022/01/13 06:33:28;;;;;;;21.17;12.10;;;14.20;47.90;13.20;103501.00;;;;4932461;28;20042;-86
2022/01/13 06:36:14;;;;;;;23.33;13.48;;;14.20;47.90;13.20;103508.00;;;;4930508;28;20050;-86
2022/01/13 06:39:01;;;;;;;21.90;12.48;;;14.20;47.90;13.20;103516.00;;;;4931935;28;20042;-86
2022/01/13 06:41:47;;;;;;;20.92;11.60;;;14.20;48.00;13.20;103520.00;;;;4946007;28;20038;-85
2022/01/13 06:44:33;;;;;;;22.30;12.70;;;14.20;48.00;13.20;103520.00;;;;4961387;28;20546;-86
2022/01/13 06:47:19;;;;;;;23.55;12.50;;;14.20;48.00;13.20;103525.00;;;;4925834;28;20038;-86
2022/01/13 06:50:07;;;;;;;22.65;12.48;;;14.20;48.00;13.20;103529.00;;;;4932480;28;20116;-86
2022/01/13 06:52:54;;;;;;;22.50;12.85;;;14.20;48.00;13.20;103531.00;;;;4946284;28;20035;-85
2022/01/13 06:55:40;;;;;;;25.70;13.45;;;14.20;48.00;13.20;103531.00;;;;4932667;28;20050;-85
2022/01/13 06:58:27;;;;;;;26.25;14.52;;;14.20;48.00;13.20;103526.00;;;;4931318;28;20042;-85
2022/01/13 07:01:17;;;;;;;23.30;13.93;;;14.20;48.00;13.20;103539.00;;;;4946683;28;20550;-85
2022/01/13 07:04:03;;;;;;;25.13;14.18;;;14.20;48.00;13.20;103536.00;;;;4943219;28;20046;-85
2022/01/13 07:06:50;;;;;;;25.20;14.10;;;14.20;48.00;13.20;103542.00;;;;4947508;28;20098;-85
2022/01/13 07:09:37;;;;;;;22.88;12.75;;;14.20;48.00;13.20;103526.00;;;;4936293;28;20547;-85
2022/01/13 07:12:24;;;;;;;22.13;12.88;;;14.20;48.00;13.20;103541.00;;;;4935916;28;20094;-86
2022/01/13 07:15:12;;;;;;;27.00;14.60;;;14.20;48.00;13.20;103531.00;;;;4933306;28;20635;-85
2022/01/13 07:17:59;;;;;;;25.95;14.05;;;14.20;48.00;13.20;103539.00;;;;4936459;28;20042;-86
2022/01/13 07:20:48;;;;;;;23.27;13.05;;;14.20;48.00;13.20;103546.00;;;;4952322;28;20460;-85
2022/01/13 07:23:34;;;;;;;27.20;14.68;;;14.20;48.10;13.20;103542.00;;;;4936415;28;20050;-85
2022/01/13 07:26:22;;;;;;;28.70;14.82;;;14.20;48.00;13.20;103551.00;;;;4934245;28;20065;-85
2022/01/13 07:29:08;;;;;;;28.83;14.27;;;14.20;48.00;13.20;103548.00;;;;4933412;28;20038;-85
2022/01/13 07:31:54;;;;;;;29.17;15.40;;;14.20;48.70;13.20;103550.00;;;;4935195;28;20041;-85
2022/01/13 07:34:40;;;;;;;25.00;14.35;;;14.20;48.00;13.20;103550.00;;;;4924146;28;20080;-85
2022/01/13 07:37:27;;;;;;;25.10;14.65;;;14.20;48.00;13.20;103543.00;;;;4933163;28;20077;-85
2022/01/13 07:40:14;;;;;;;28.45;15.13;;;14.20;48.00;13.20;103546.00;;;;4935057;28;20495;-85
2022/01/13 07:43:02;;;;;;;25.75;14.68;;;14.20;48.00;13.20;103542.00;;;;4929328;28;20510;-85
2022/01/13 07:45:52;;;;;;;25.85;13.95;;;14.20;48.00;13.20;103555.00;;;;4935429;28;20141;-85
2022/01/13 07:48:38;;;;;;;27.05;14.85;;;14.20;48.00;13.20;103542.00;;;;4951905;28;20034;-85
2022/01/13 07:51:24;;;;;;;28.27;15.07;;;14.20;48.00;13.20;103554.00;;;;4936334;28;20074;-85
2022/01/13 07:54:10;;;;;;;26.52;15.13;;;14.20;48.00;13.20;103556.00;;;;4944174;28;20042;-85
2022/01/13 07:56:57;;;;;;;28.88;14.80;;;14.20;48.10;13.20;103563.00;;;;4966117;28;20046;-85
2022/01/13 07:59:44;;;;;;;28.10;15.07;;;14.20;48.00;13.20;103570.00;;;;4936968;28;20053;-85
2022/01/13 08:02:30;;;;;;;27.23;14.38;;;14.20;48.00;13.20;103561.00;;;;4938799;28;20034;-85
2022/01/13 08:05:16;;;;;;;24.48;13.68;;;14.20;48.00;13.20;103573.00;;;;4959237;28;20073;-85
2022/01/13 08:08:03;;;;;;;25.75;14.07;;;14.20;48.00;13.20;103566.00;;;;4950860;28;20042;-85
2022/01/13 08:10:49;;;;;;;30.58;15.50;;;14.20;48.10;13.20;103560.00;;;;4951392;28;20046;-85
2022/01/13 08:13:36;;;;;;;25.58;14.05;;;14.20;48.00;13.20;103565.00;;;;4936311;28;20455;-85
2022/01/13 08:16:31;;;;;;;27.27;15.07;;;14.20;48.00;13.20;103570.00;;;;4948546;28;20070;-85
2022/01/13 08:22:22;;;;;;;26.70;14.95;;;14.20;48.00;13.20;103573.00;;;;4957422;28;20108;-85
2022/01/13 08:25:12;;;;;;;27.75;13.52;;;14.20;48.00;13.20;103579.00;;;;4949349;28;20707;-85
2022/01/13 08:27:58;;;;;;;26.45;13.70;;;14.20;48.00;13.20;103574.00;;;;4964194;28;20041;-85
2022/01/13 08:30:44;;;;;;;24.55;13.40;;;14.20;48.00;13.20;103574.00;;;;4940993;28;20129;-85
2022/01/13 08:33:31;;;;;;;29.65;15.05;;;14.20;48.10;13.20;103586.00;;;;4949366;28;20112;-85
2022/01/13 08:36:17;;;;;;;25.95;13.98;;;14.20;48.00;13.20;103587.00;;;;4938478;28;20479;-85
2022/01/13 08:39:03;;;;;;;25.98;13.80;;;14.20;48.00;13.20;103580.00;;;;4941865;28;20510;-85
2022/01/13 08:41:50;;;;;;;26.80;13.57;;;14.20;48.10;13.20;103581.00;;;;4945136;28;20037;-86
2022/01/13 08:44:36;;;;;;;26.42;14.18;;;14.10;47.90;13.20;103584.00;;;;4936149;28;20042;-85
2022/01/13 08:47:25;;;;;;;26.85;14.00;;;14.10;48.00;13.20;103588.00;;;;4937607;28;20088;-85
2022/01/13 08:50:12;;;;;;;25.13;13.70;;;14.20;48.00;13.20;103585.00;;;;4951244;28;20042;-85
2022/01/13 08:52:58;;;;;;;22.92;12.32;;;14.20;48.00;13.20;103595.00;;;;4937675;28;20536;-85
2022/01/13 08:55:45;;;;;;;26.63;13.40;;;14.20;48.00;13.20;103584.00;;;;4934584;28;21173;-85
2022/01/13 08:58:32;;;;;;;24.23;12.25;;;14.20;48.00;13.20;103585.00;;;;4950243;28;20046;-85
2022/01/13 09:01:18;;;;;;;26.02;12.43;;;14.20;48.00;13.20;103602.00;;;;4949043;28;20084;-85
2022/01/13 09:04:05;;;;;;;22.13;11.80;;;14.20;47.90;13.30;103596.00;;;;4927180;28;20478;-85
2022/01/13 09:06:52;;;;;;;25.13;12.70;;;14.20;47.90;13.20;103602.00;;;;4951802;28;20178;-85
2022/01/13 09:09:38;;;;;;;22.80;12.13;;;14.20;48.00;13.20;103604.00;;;;4947146;28;20038;-85
2022/01/13 09:12:24;;;;;;;21.50;11.82;;;14.20;47.90;13.30;103604.00;;;;4934654;28;20495;-85
2022/01/13 09:15:16;;;;;;;21.35;11.50;;;14.20;47.90;13.30;103605.00;;;;4936333;28;20411;-86
2022/01/13 09:18:14;;;;;;;22.20;11.52;;;14.20;47.90;13.20;103602.00;;;;4940537;28;20407;-86
2022/01/13 09:21:01;;;;;;;22.90;12.15;;;14.20;47.90;13.20;103610.00;;;;4938615;28;20120;-85
2022/01/13 09:23:47;;;;;;;22.67;11.73;;;14.20;47.90;13.20;103622.00;;;;4937314;28;20340;-85
2022/01/13 09:26:34;;;;;;;21.05;11.43;;;14.20;47.90;13.20;103610.00;;;;4948538;28;20125;-85
2022/01/13 09:29:20;;;;;;;20.35;11.45;;;14.20;47.90;13.30;103617.00;;;;4951168;28;20038;-85
2022/01/13 09:32:07;;;;;;;21.33;11.30;;;14.20;48.00;13.20;103617.00;;;;4948878;28;20049;-86
2022/01/13 09:34:53;;;;;;;20.73;11.70;;;14.20;48.00;13.20;103619.00;;;;4927223;28;20105;-86
2022/01/13 09:37:39;;;;;;;21.10;11.40;;;14.20;48.00;13.30;103613.00;;;;4976070;28;20108;-86
2022/01/13 09:40:26;;;;;;;21.50;11.27;;;14.20;48.00;13.20;103617.00;;;;4933641;28;20158;-85
2022/01/13 09:43:13;;;;;;;19.27;10.63;;;14.20;48.00;13.20;103618.00;;;;4932772;28;20050;-85
2022/01/13 09:45:59;;;;;;;21.58;11.95;;;14.20;48.00;13.20;103603.00;;;;4937946;28;20034;-86
2022/01/13 09:48:48;;;;;;;22.13;11.90;;;14.20;48.00;13.20;103589.00;;;;4949909;28;20050;-85
2022/01/13 09:51:37;;;;;;;20.92;10.65;;;14.20;48.00;13.20;103591.00;;;;4937652;28;20050;-85
2022/01/13 09:54:23;;;;;;;;;;;14.20;48.00;13.20;103583.00;;;;4950376;28;20034;-85
2022/01/13 09:57:09;;;;;;;18.80;10.23;;;14.20;48.00;13.20;103577.00;;;;4968171;28;19957;-85
2022/01/13 09:59:58;;;;;;;17.90;9.95;;;14.20;47.90;13.20;103572.00;;;;4938244;28;20407;-85
2022/01/13 10:02:44;;;;;;;18.05;10.32;;;14.20;48.00;13.20;103581.00;;;;4935445;28;20045;-85
2022/01/13 10:05:37;;;;;;;20.30;10.57;;;14.20;47.90;13.20;103576.00;;;;4935551;28;20545;-86
2022/01/13 10:08:39;;;;;;;20.15;10.88;;;14.20;48.00;13.20;103578.00;;;;4951248;28;20034;-85
2022/01/13 10:11:37;;;;;;;16.40;9.73;;;14.20;48.00;13.20;103590.00;;;;4950385;28;20456;-85
2022/01/13 10:17:16;;;;;;;19.67;9.82;;;14.20;48.10;13.20;103573.00;;;;4962014;28;20034;-85
2022/01/13 10:20:11;;;;;;;18.75;9.77;;;14.10;48.10;13.20;103573.00;;;;4959416;28;20411;-86
2022/01/13 10:23:08;;;;;;;18.60;9.98;;;14.10;48.10;13.20;103576.00;;;;4933802;28;20039;-86
2022/01/13 10:25:54;;;;;;;20.23;10.50;;;14.10;48.10;13.20;103585.00;;;;4938439;28;20042;-85
2022/01/13 10:28:40;;;;;;;17.42;9.55;;;14.10;48.10;13.20;103582.00;;;;4946966;28;20092;-86
2022/01/13 10:31:50;;;;;;;20.10;10.68;;;14.10;48.10;13.20;103579.00;;;;4949455;28;20050;-86
2022/01/13 10:34:41;;;;;;;22.63;10.30;;;14.10;48.10;13.20;103582.00;;;;4946234;28;20054;-85
2022/01/13 10:37:42;;;;;;;21.50;11.68;;;14.10;48.20;13.20;103588.00;;;;4962251;28;20046;-85
2022/01/13 10:40:38;;;;;;;19.45;10.95;;;14.10;48.10;13.20;103588.00;;;;4933774;28;20483;-85
2022/01/13 10:43:26;;;;;;;19.33;10.63;;;14.10;48.10;13.20;103572.00;;;;4931958;28;20046;-85
2022/01/13 10:46:12;;;;;;;17.48;9.60;;;14.10;48.10;13.20;103577.00;;;;4939163;28;20430;-85
2022/01/13 10:49:08;;;;;;;21.10;11.90;;;14.10;48.10;13.20;103576.00;;;;4936231;28;20048;-85
2022/01/13 10:52:23;;;;;;;17.33;9.52;;;14.10;48.10;13.20;103577.00;;;;4958077;28;20509;-86
2022/01/13 10:55:18;;;;;;;17.35;9.73;;;14.10;48.10;13.20;103573.00;;;;4978640;28;20174;-85
2022/01/13 10:58:04;;;;;;;18.05;9.98;;;14.20;48.20;13.20;103569.00;;;;4974895;28;20077;-85
2022/01/13 11:00:51;;;;;;;17.13;10.43;;;14.10;48.10;13.20;103560.00;;;;4959436;28;20050;-86
2022/01/13 11:03:40;;;;;;;19.45;10.20;;;14.10;48.20;13.10;103552.00;;;;4935184;28;21071;-85
2022/01/13 11:06:28;;;;;;;18.73;10.23;;;14.10;48.20;13.10;103558.00;;;;4934441;28;20656;-85
2022/01/13 11:09:18;;;;;;;17.88;9.40;;;14.10;48.10;13.10;103544.00;;;;4933701;28;20041;-85
2022/01/13 11:12:05;;;;;;;18.17;9.75;;;14.10;48.20;13.10;103558.00;;;;4933687;28;20070;-85
2022/01/13 11:14:59;;;;;;;16.67;9.47;;;14.10;48.10;13.10;103553.00;;;;4947751;28;20073;-85
2022/01/13 11:17:45;;;;;;;16.67;9.57;;;14.10;48.10;13.10;103555.00;;;;4950151;28;20047;-86
2022/01/13 11:20:31;;;;;;;15.90;9.95;;;14.10;48.80;13.10;103539.00;;;;4934617;28;20411;-85
2022/01/13 11:23:18;;;;;;;15.73;9.18;;;14.10;48.30;13.10;103554.00;;;;4946015;28;20068;-85
2022/01/13 11:26:04;;;;;;;17.23;9.70;;;14.00;48.20;13.10;103535.00;;;;4936009;28;20066;-85
2022/01/13 11:28:51;;;;;;;16.17;9.40;;;14.00;48.20;13.10;103539.00;;;;4935286;28;20038;-86
2022/01/13 11:31:38;;;;;;;16.65;9.75;;;14.00;48.20;13.10;103544.00;;;;4932832;28;20065;-85
2022/01/13 11:34:24;;;;;;;16.00;8.63;;;14.00;48.30;13.10;103543.00;;;;4945625;28;20062;-85
2022/01/13 11:37:10;;;;;;;16.13;8.90;;;14.00;48.20;13.10;103543.00;;;;4948831;28;20065;-85
2022/01/13 11:39:58;;;;;;;14.77;8.23;;;14.00;48.30;13.10;103534.00;;;;4935257;28;20050;-85
2022/01/13 11:42:46;;;;;;;16.77;9.33;;;14.00;48.30;13.10;103540.00;;;;4932783;28;20384;-85
2022/01/13 11:45:40;;;;;;;13.57;7.85;;;14.00;48.20;13.10;103531.00;;;;4930578;28;20067;-85
2022/01/13 11:48:29;;;;;;;14.48;8.23;;;13.90;48.30;13.00;103521.00;;;;4935384;28;20068;-85
2022/01/13 11:51:19;;;;;;;14.25;8.25;;;13.90;48.30;13.10;103530.00;;;;4933070;28;20042;-85
2022/01/13 11:54:06;;;;;;;14.80;8.13;;;13.90;48.30;13.00;103523.00;;;;4954885;28;20034;-85
2022/01/13 11:57:18;;;;;;;15.80;8.77;;;13.90;48.30;13.00;103523.00;;;;4946810;28;20071;-85
2022/01/13 12:00:07;;;;;;;13.88;8.50;;;13.90;48.40;13.10;103526.00;;;;4954131;28;20050;-85
2022/01/13 12:02:54;;;;;;;15.68;9.05;;;14.00;48.40;13.00;103514.00;;;;4970996;28;20053;-85
2022/01/13 12:05:42;;;;;;;14.68;7.82;;;14.00;48.40;13.10;103510.00;;;;4936986;28;20047;-85
2022/01/13 12:08:52;;;;;;;;;;;13.90;48.40;13.00;103506.00;;;;4935083;28;20057;-85
2022/01/13 12:11:41;;;;;;;14.73;8.25;;;14.00;48.40;13.00;103504.00;;;;4973942;28;19962;-86
2022/01/13 12:14:30;;;;;;;15.15;8.55;;;14.00;48.30;13.00;103506.00;;;;4927399;28;20495;-86
2022/01/13 12:17:24;;;;;;;16.38;8.85;;;14.00;48.30;13.00;103507.00;;;;4972440;28;20121;-85
2022/01/13 12:20:27;;;;;;;15.43;8.63;;;13.90;48.40;13.00;103494.00;;;;4936570;28;20038;-85
2022/01/13 12:23:42;;;;;;;18.48;9.93;;;14.00;48.40;13.00;103499.00;;;;4959388;28;20451;-85
2022/01/13 12:26:34;;;;;;;15.40;8.68;;;14.00;48.40;13.00;103495.00;;;;4961231;28;20050;-85